Time;durP1;ratioP1;P1;durP2;ratioP2;P2;SDS_P1;SDS_P2;PMS_P1;PMS_P2;Temp;Humidity;BMP_temperature;BMP_pressure;BME280_temperature;BME280_humidity;BME280_pressure;Samples;Min_cycle;Max_cycle;Signal;HPM_P1;HPM_P2
2021/03/30 00:00:42;;;;;;;;;;;19.00;99.90;;;;;;4953863;29;19918;-81
2021/03/30 00:03:09;;;;;;;;;;;19.00;99.90;;;;;;4934743;29;19914;-80
2021/03/30 00:05:35;;;;;;;;;;;18.90;99.90;;;;;;4952993;29;19914;-78
2021/03/30 00:08:03;;;;;;;;;;;18.90;99.90;;;;;;4953424;29;20278;-83
2021/03/30 00:10:37;;;;;;;;;;;18.90;99.90;;;;;;4934175;29;19915;-79
2021/03/30 00:13:07;;;;;;;;;;;19.00;99.90;;;;;;4932910;29;19923;-83
2021/03/30 00:15:34;;;;;;;;;;;19.10;99.90;;;;;;4951787;29;19917;-77
2021/03/30 00:18:02;;;;;;;;;;;19.10;99.90;;;;;;4946968;29;20009;-77
2021/03/30 00:20:28;;;;;;;;;;;19.30;99.90;;;;;;4951739;29;19923;-78
2021/03/30 00:22:58;;;;;;;;;;;19.20;99.90;;;;;;4951040;29;19918;-78
2021/03/30 00:25:25;;;;;;;;;;;19.30;99.90;;;;;;4950463;29;19911;-79
2021/03/30 00:27:52;;;;;;;;;;;19.20;99.90;;;;;;4952925;28;19910;-81
2021/03/30 00:30:19;;;;;;;;;;;19.20;99.90;;;;;;4937824;29;20316;-79
2021/03/30 00:32:46;;;;;;;;;;;19.30;99.90;;;;;;4954721;29;20635;-80
2021/03/30 00:35:12;;;;;;;;;;;19.30;99.90;;;;;;4955596;29;19911;-81
2021/03/30 00:37:39;;;;;;;;;;;19.30;99.90;;;;;;4935611;29;19922;-79
2021/03/30 00:40:07;;;;;;;;;;;19.50;99.90;;;;;;4955139;29;19936;-80
2021/03/30 00:42:38;;;;;;;;;;;19.50;99.90;;;;;;4954336;29;19921;-80
2021/03/30 00:45:06;;;;;;;;;;;19.70;99.50;;;;;;4955530;29;19915;-78
2021/03/30 00:47:34;;;;;;;;;;;19.70;99.30;;;;;;4954854;29;19925;-81
2021/03/30 00:50:01;;;;;;;;;;;19.70;98.80;;;;;;4954956;29;19969;-77
2021/03/30 00:52:28;;;;;;;;;;;19.70;99.00;;;;;;4955055;29;19918;-77
2021/03/30 00:54:54;;;;;;;;;;;19.80;99.10;;;;;;4942745;29;19915;-77
2021/03/30 00:57:21;;;;;;;;;;;19.80;98.90;;;;;;4966153;29;20047;-79
2021/03/30 00:59:48;;;;;;;;;;;19.80;99.00;;;;;;4955832;28;20277;-77
2021/03/30 01:02:14;;;;;;;;;;;19.80;98.50;;;;;;4952606;29;19911;-78
2021/03/30 01:04:41;;;;;;;;;;;19.80;98.20;;;;;;4954763;29;19914;-78
2021/03/30 01:07:09;;;;;;;;;;;19.80;98.50;;;;;;4955000;29;19922;-79
2021/03/30 01:09:38;;;;;;;;;;;20.00;98.40;;;;;;4918511;29;19923;-78
2021/03/30 01:12:29;;;;;;;;;;;20.20;98.40;;;;;;4936637;29;19923;-79
2021/03/30 01:15:11;;;;;;;;;;;20.20;98.80;;;;;;4911733;29;19910;-79
2021/03/30 01:17:48;;;;;;;;;;;20.40;98.70;;;;;;4954798;29;20274;-79
2021/03/30 01:20:15;;;;;;;;;;;20.60;97.60;;;;;;4955778;29;19938;-78
2021/03/30 01:23:07;;;;;;;;;;;20.80;97.80;;;;;;4955703;29;20078;-80
2021/03/30 01:25:38;;;;;;;;;;;20.90;96.80;;;;;;4938859;29;19914;-82
2021/03/30 01:28:27;;;;;;;;;;;21.30;96.90;;;;;;4969637;28;19914;-80
2021/03/30 01:30:57;;;;;;;;;;;21.40;95.80;;;;;;4936585;29;20395;-79
2021/03/30 01:33:26;;;;;;;;;;;21.30;96.50;;;;;;4946351;29;19930;-78
2021/03/30 01:35:55;;;;;;;;;;;21.30;95.10;;;;;;4955924;29;20005;-79
2021/03/30 01:38:23;;;;;;;;;;;21.20;95.70;;;;;;4954512;28;19914;-78
2021/03/30 01:40:52;;;;;;;;;;;21.40;95.50;;;;;;4948135;29;19970;-79
2021/03/30 01:43:20;;;;;;;;;;;21.30;94.40;;;;;;4954396;29;19914;-76
2021/03/30 01:45:46;;;;;;;;;;;21.20;95.10;;;;;;4938179;29;19910;-78
2021/03/30 01:48:14;;;;;;;;;;;21.20;94.40;;;;;;4954371;29;19961;-79
2021/03/30 01:50:41;;;;;;;;;;;21.20;93.50;;;;;;4954345;29;19911;-78
2021/03/30 01:53:09;;;;;;;;;;;21.00;93.30;;;;;;4954512;29;19941;-77
2021/03/30 01:55:37;;;;;;;;;;;21.00;93.60;;;;;;4937174;29;20349;-80
2021/03/30 01:58:04;;;;;;;;;;;21.10;94.30;;;;;;4953853;29;19919;-80
2021/03/30 02:00:33;;;;;;;;;;;21.20;93.80;;;;;;4954246;29;20348;-79
2021/03/30 02:03:03;;;;;;;;;;;21.20;94.10;;;;;;4954242;29;19915;-79
2021/03/30 02:05:32;;;;;;;;;;;21.10;95.00;;;;;;4951849;29;20009;-80
2021/03/30 02:08:00;;;;;;;;;;;21.00;94.30;;;;;;4934435;29;20001;-81
2021/03/30 02:10:37;;;;;;;;;;;20.90;92.40;;;;;;4955075;29;19965;-78
2021/03/30 02:13:06;;;;;;;;;;;20.80;93.50;;;;;;4938049;29;20033;-83
2021/03/30 02:15:38;;;;;;;;;;;20.70;93.70;;;;;;4955234;29;19922;-80
2021/03/30 02:18:07;;;;;;;;;;;20.70;94.20;;;;;;4954877;29;19923;-79
2021/03/30 02:20:40;;;;;;;;;;;20.80;93.70;;;;;;4955323;29;19993;-78
2021/03/30 02:23:07;;;;;;;;;;;21.00;93.70;;;;;;4955740;29;19918;-79
2021/03/30 02:25:35;;;;;;;;;;;21.00;94.10;;;;;;4953847;29;19911;-81
2021/03/30 02:28:07;;;;;;;;;;;20.90;91.90;;;;;;4954729;29;19910;-82
2021/03/30 02:30:40;;;;;;;;;;;20.90;92.70;;;;;;4949135;29;19937;-78
2021/03/30 02:33:08;;;;;;;;;;;21.00;92.20;;;;;;4955511;28;19925;-78
2021/03/30 02:35:35;;;;;;;;;;;20.90;92.50;;;;;;4953965;28;19997;-78
2021/03/30 02:38:03;;;;;;;;;;;20.90;93.20;;;;;;4953522;29;19938;-77
2021/03/30 02:40:30;;;;;;;;;;;21.00;93.60;;;;;;4955397;29;19915;-78
2021/03/30 02:42:57;;;;;;;;;;;21.00;92.90;;;;;;4935743;29;19911;-79
2021/03/30 02:45:26;;;;;;;;;;;21.10;92.70;;;;;;4950245;29;20422;-80
2021/03/30 02:47:59;;;;;;;;;;;21.00;92.90;;;;;;4936003;29;19985;-78
2021/03/30 02:50:27;;;;;;;;;;;21.00;93.70;;;;;;4948848;28;19936;-81
2021/03/30 02:52:54;;;;;;;;;;;21.00;93.00;;;;;;4951257;29;19923;-79
2021/03/30 02:55:22;;;;;;;;;;;21.00;92.80;;;;;;4950913;29;19914;-79
2021/03/30 02:57:51;;;;;;;;;;;21.00;93.50;;;;;;4951497;29;20549;-79
2021/03/30 03:00:18;;;;;;;;;;;20.90;93.70;;;;;;4947982;29;20030;-78
2021/03/30 03:02:46;;;;;;;;;;;21.00;93.80;;;;;;4933912;29;20005;-79
2021/03/30 03:05:15;;;;;;;;;;;21.10;92.70;;;;;;4953052;29;19962;-80
2021/03/30 03:07:41;;;;;;;;;;;21.00;93.10;;;;;;4953808;29;19933;-79
2021/03/30 03:10:09;;;;;;;;;;;21.00;93.10;;;;;;4948380;29;20013;-81
2021/03/30 03:12:41;;;;;;;;;;;21.00;91.50;;;;;;4952180;29;19941;-81
2021/03/30 03:15:08;;;;;;;;;;;21.00;91.80;;;;;;4935555;29;20051;-82
2021/03/30 03:17:35;;;;;;;;;;;21.10;91.90;;;;;;4934868;29;20365;-78
2021/03/30 03:20:03;;;;;;;;;;;21.10;91.90;;;;;;4952946;29;19910;-79
2021/03/30 03:22:30;;;;;;;;;;;21.10;92.20;;;;;;4950937;29;19915;-78
2021/03/30 03:24:57;;;;;;;;;;;20.90;90.90;;;;;;4948311;29;19914;-80
2021/03/30 03:27:24;;;;;;;;;;;20.90;91.50;;;;;;4949422;29;19915;-83
2021/03/30 03:29:52;;;;;;;;;;;21.00;91.60;;;;;;4954503;29;20009;-80
2021/03/30 03:32:22;;;;;;;;;;;21.10;91.80;;;;;;4951305;29;20278;-83
2021/03/30 03:34:49;;;;;;;;;;;21.10;90.70;;;;;;4954883;29;19985;-81
2021/03/30 03:37:16;;;;;;;;;;;21.10;90.80;;;;;;4933211;29;19915;-80
2021/03/30 03:39:42;;;;;;;;;;;21.20;91.70;;;;;;4953475;29;19931;-83
2021/03/30 03:42:10;;;;;;;;;;;21.20;90.80;;;;;;4934654;29;19922;-81
2021/03/30 03:44:37;;;;;;;;;;;21.20;91.40;;;;;;4933427;29;19919;-83
2021/03/30 03:47:04;;;;;;;;;;;21.40;91.10;;;;;;4948641;29;19915;-80
2021/03/30 03:49:30;;;;;;;;;;;21.40;90.00;;;;;;4925815;29;20378;-82
2021/03/30 03:51:59;;;;;;;;;;;21.30;90.20;;;;;;4951690;28;19910;-83
2021/03/30 03:54:27;;;;;;;;;;;21.30;89.60;;;;;;4950572;29;20265;-82
2021/03/30 03:57:01;;;;;;;;;;;21.40;90.10;;;;;;4952738;29;19914;-81
2021/03/30 03:59:31;;;;;;;;;;;21.40;90.70;;;;;;4955178;29;19918;-80
2021/03/30 04:02:21;;;;;;;;;;;21.30;88.70;;;;;;4961598;28;19918;-82
2021/03/30 04:04:51;;;;;;;;;;;21.30;90.50;;;;;;4964349;29;19926;-82
2021/03/30 04:07:27;;;;;;;;;;;21.30;91.90;;;;;;4962947;29;19981;-79
2021/03/30 04:09:55;;;;;;;;;;;21.10;91.10;;;;;;4956470;29;19914;-80
2021/03/30 04:12:27;;;;;;;;;;;21.00;91.50;;;;;;4957762;29;19915;-78
2021/03/30 04:14:54;;;;;;;;;;;21.00;90.80;;;;;;4940035;29;19914;-81
2021/03/30 04:17:22;;;;;;;;;;;21.00;91.00;;;;;;4956774;29;20025;-80
2021/03/30 04:19:49;;;;;;;;;;;21.10;91.50;;;;;;4955639;29;19930;-78
2021/03/30 04:22:16;;;;;;;;;;;21.10;90.70;;;;;;4937965;29;19914;-78
2021/03/30 04:24:44;;;;;;;;;;;21.10;90.50;;;;;;4953392;29;19914;-79
2021/03/30 04:27:11;;;;;;;;;;;21.10;91.30;;;;;;4939787;29;19953;-78
2021/03/30 04:29:41;;;;;;;;;;;21.10;91.70;;;;;;4955237;29;19929;-78
2021/03/30 04:32:08;;;;;;;;;;;21.00;91.70;;;;;;4934150;29;19926;-78
2021/03/30 04:34:38;;;;;;;;;;;21.00;90.90;;;;;;4956964;29;19941;-79
2021/03/30 04:37:05;;;;;;;;;;;21.00;91.10;;;;;;4955727;29;19915;-78
2021/03/30 04:39:33;;;;;;;;;;;21.10;90.40;;;;;;4950810;29;20434;-81
2021/03/30 04:41:59;;;;;;;;;;;21.00;91.10;;;;;;4956996;29;19922;-78
2021/03/30 04:44:26;;;;;;;;;;;21.00;91.10;;;;;;4957312;29;21048;-77
2021/03/30 04:46:53;;;;;;;;;;;21.00;91.20;;;;;;4936275;29;19925;-78
2021/03/30 04:49:19;;;;;;;;;;;20.90;90.70;;;;;;4937359;29;20442;-78
2021/03/30 04:51:46;;;;;;;;;;;20.90;90.20;;;;;;4951178;29;19918;-80
2021/03/30 04:54:13;;;;;;;;;;;21.00;91.00;;;;;;4935875;29;20344;-78
2021/03/30 04:56:40;;;;;;;;;;;21.00;90.80;;;;;;4943587;29;20424;-80
2021/03/30 04:59:07;;;;;;;;;;;21.00;91.20;;;;;;4952637;29;19941;-78
2021/03/30 05:01:33;;;;;;;;;;;21.00;91.60;;;;;;4955631;29;19922;-79
2021/03/30 05:04:01;;;;;;;;;;;20.80;91.80;;;;;;4952854;29;20388;-78
2021/03/30 05:06:28;;;;;;;;;;;20.70;93.90;;;;;;4951747;29;19921;-81
2021/03/30 05:08:54;;;;;;;;;;;20.60;94.00;;;;;;4953310;29;19961;-81
2021/03/30 05:11:21;;;;;;;;;;;20.60;93.60;;;;;;4955716;29;19919;-81
2021/03/30 05:13:50;;;;;;;;;;;20.60;93.80;;;;;;4955310;28;20037;-82
2021/03/30 05:16:17;;;;;;;;;;;20.60;94.00;;;;;;4952677;29;19958;-82
2021/03/30 05:18:44;;;;;;;;;;;20.60;94.30;;;;;;4955683;29;19965;-82
2021/03/30 05:21:17;;;;;;;;;;;20.60;95.00;;;;;;4954963;29;19914;-81
2021/03/30 05:23:44;;;;;;;;;;;20.70;95.00;;;;;;4954409;29;20289;-81
2021/03/30 05:26:13;;;;;;;;;;;20.60;95.90;;;;;;4956381;29;19911;-79
2021/03/30 05:28:40;;;;;;;;;;;20.70;96.00;;;;;;4955433;29;19969;-81
2021/03/30 05:31:07;;;;;;;;;;;20.50;96.00;;;;;;4939021;29;19950;-80
2021/03/30 05:33:34;;;;;;;;;;;20.40;96.50;;;;;;4956046;29;19919;-79
2021/03/30 05:36:02;;;;;;;;;;;20.40;96.30;;;;;;4956497;29;19914;-80
2021/03/30 05:38:29;;;;;;;;;;;20.50;96.40;;;;;;4955529;29;20392;-82
2021/03/30 05:40:56;;;;;;;;;;;20.50;96.30;;;;;;4937413;29;19927;-81
2021/03/30 05:43:23;;;;;;;;;;;20.50;96.20;;;;;;4955343;29;19918;-80
2021/03/30 05:45:50;;;;;;;;;;;20.40;96.70;;;;;;4955316;29;20471;-80
2021/03/30 05:48:17;;;;;;;;;;;20.40;96.90;;;;;;4937031;29;20333;-81
2021/03/30 05:50:44;;;;;;;;;;;20.30;97.60;;;;;;4935780;29;20084;-79
2021/03/30 05:53:11;;;;;;;;;;;20.30;98.00;;;;;;4948651;29;19924;-80
2021/03/30 05:55:39;;;;;;;;;;;20.20;97.90;;;;;;4934785;29;19918;-80
2021/03/30 05:58:07;;;;;;;;;;;20.20;98.10;;;;;;4932248;29;19915;-82
2021/03/30 06:00:35;;;;;;;;;;;20.10;98.80;;;;;;4953188;29;19915;-82
2021/03/30 06:03:04;;;;;;;;;;;20.00;98.70;;;;;;4950134;29;20417;-80
2021/03/30 06:05:32;;;;;;;;;;;20.00;99.10;;;;;;4937694;29;19919;-79
2021/03/30 06:07:59;;;;;;;;;;;19.90;98.80;;;;;;4952792;29;20342;-80
2021/03/30 06:10:31;;;;;;;;;;;19.90;99.30;;;;;;4949531;29;19915;-78
2021/03/30 06:12:58;;;;;;;;;;;20.00;99.40;;;;;;4934025;29;19935;-79
2021/03/30 06:15:32;;;;;;;;;;;19.90;99.30;;;;;;4954843;29;19915;-80
2021/03/30 06:18:17;;;;;;;;;;;19.90;99.60;;;;;;4955404;29;19933;-80
2021/03/30 06:20:44;;;;;;;;;;;19.90;99.70;;;;;;4935462;29;19926;-81
2021/03/30 06:23:12;;;;;;;;;;;19.90;99.90;;;;;;4953225;29;19922;-79
2021/03/30 06:25:40;;;;;;;;;;;19.90;99.90;;;;;;4955260;28;19985;-80
2021/03/30 06:28:29;;;;;;;;;;;20.00;99.90;;;;;;4939552;29;19969;-80
2021/03/30 06:31:01;;;;;;;;;;;20.00;99.90;;;;;;4945624;29;19922;-80
2021/03/30 06:33:29;;;;;;;;;;;19.80;99.90;;;;;;4953544;29;19930;-80
2021/03/30 06:36:19;;;;;;;;;;;19.70;99.90;;;;;;4955558;29;20386;-81
2021/03/30 06:38:48;;;;;;;;;;;19.70;99.90;;;;;;4954441;29;20005;-80
2021/03/30 06:41:48;;;;;;;;;;;19.70;99.90;;;;;;4933278;29;20369;-80
2021/03/30 06:44:28;;;;;;;;;;;19.70;99.90;;;;;;4910286;29;20001;-79
2021/03/30 06:46:58;;;;;;;;;;;19.50;99.70;;;;;;4943712;29;19918;-81
2021/03/30 06:49:25;;;;;;;;;;;19.60;99.90;;;;;;4952310;29;19911;-80
2021/03/30 06:52:02;;;;;;;;;;;19.50;99.90;;;;;;4941365;29;19919;-81
2021/03/30 06:54:29;;;;;;;;;;;19.50;99.90;;;;;;4933530;29;19918;-79
2021/03/30 06:56:58;;;;;;;;;;;19.40;99.70;;;;;;4933290;29;19956;-80
2021/03/30 06:59:44;;;;;;;;;;;19.40;99.90;;;;;;4952256;29;20270;-81
2021/03/30 07:02:12;;;;;;;;;;;19.40;99.90;;;;;;4934824;29;19926;-81
2021/03/30 07:04:53;;;;;;;;;;;19.40;99.80;;;;;;4952285;29;19918;-81
2021/03/30 07:07:22;;;;;;;;;;;19.50;99.90;;;;;;4933924;29;19921;-81
2021/03/30 07:09:53;;;;;;;;;;;19.40;99.90;;;;;;4949605;29;19915;-82
2021/03/30 07:12:24;;;;;;;;;;;19.40;99.90;;;;;;4932141;29;19930;-81
2021/03/30 07:14:56;;;;;;;;;;;19.40;99.90;;;;;;4950021;29;19926;-81
2021/03/30 07:17:28;;;;;;;;;;;19.40;99.90;;;;;;4950865;29;19976;-80
2021/03/30 07:20:00;;;;;;;;;;;19.40;99.90;;;;;;4946784;29;19914;-81
2021/03/30 07:22:28;;;;;;;;;;;19.40;99.90;;;;;;4930980;29;20002;-81
2021/03/30 07:25:07;;;;;;;;;;;19.30;99.90;;;;;;4913191;29;19927;-82
2021/03/30 07:27:57;;;;;;;;;;;19.30;99.90;;;;;;4930046;29;19926;-82
2021/03/30 07:30:26;;;;;;;;;;;19.20;99.90;;;;;;4927074;29;20365;-82
2021/03/30 07:33:13;;;;;;;;;;;19.20;99.90;;;;;;4953276;29;19929;-80
2021/03/30 07:35:40;;;;;;;;;;;19.10;99.90;;;;;;4953637;29;19915;-80
2021/03/30 07:38:11;;;;;;;;;;;19.10;99.90;;;;;;4957524;28;19915;-80
2021/03/30 07:40:41;;;;;;;;;;;19.10;99.90;;;;;;4958174;28;20365;-81
2021/03/30 07:43:14;;;;;;;;;;;19.10;99.90;;;;;;4948672;29;19914;-80
2021/03/30 07:45:42;;;;;;;;;;;19.10;99.90;;;;;;4958327;28;19922;-81
2021/03/30 07:48:15;;;;;;;;;;;19.10;99.90;;;;;;4940856;29;20017;-81
2021/03/30 07:51:00;;;;;;;;;;;19.10;99.90;;;;;;4942053;29;20023;-81
2021/03/30 07:53:48;;;;;;;;;;;19.00;99.90;;;;;;4938298;29;19923;-81
2021/03/30 07:56:51;;;;;;;;;;;19.00;99.90;;;;;;4938417;29;20593;-81
2021/03/30 07:59:52;;;;;;;;;;;;;;;;;;;;;
2021/03/30 08:02:21;;;;;;;;;;;19.00;99.90;;;;;;4940129;29;20612;-81
2021/03/30 08:05:03;;;;;;;;;;;19.00;99.90;;;;;;4952993;29;20360;-79
2021/03/30 08:07:49;;;;;;;;;;;19.00;99.90;;;;;;4959436;28;19918;-79
2021/03/30 08:10:22;;;;;;;;;;;19.00;99.90;;;;;;4960724;28;19914;-79
2021/03/30 08:12:48;;;;;;;;;;;19.00;99.90;;;;;;4960828;29;19934;-80
2021/03/30 08:15:33;;;;;;;;;;;18.90;99.90;;;;;;4958924;28;19953;-80
2021/03/30 08:18:01;;;;;;;;;;;18.90;99.90;;;;;;4943014;29;20293;-78
2021/03/30 08:20:28;;;;;;;;;;;18.90;99.90;;;;;;4937085;29;20012;-80
2021/03/30 08:23:09;;;;;;;;;;;18.90;99.90;;;;;;4959321;29;19969;-80
2021/03/30 08:25:39;;;;;;;;;;;18.90;99.90;;;;;;4959710;28;19915;-80
2021/03/30 08:28:06;;;;;;;;;;;18.80;99.90;;;;;;4943400;29;20269;-80
2021/03/30 08:30:42;;;;;;;;;;;18.80;99.90;;;;;;4960528;28;19911;-80
2021/03/30 08:33:11;;;;;;;;;;;18.80;99.90;;;;;;4959745;29;20285;-80
2021/03/30 08:35:42;;;;;;;;;;;18.80;99.90;;;;;;4959501;28;20346;-79
2021/03/30 08:38:28;;;;;;;;;;;18.90;99.90;;;;;;4942457;29;20381;-80
2021/03/30 08:40:55;;;;;;;;;;;18.90;99.90;;;;;;4942990;29;19915;-80
2021/03/30 08:43:22;;;;;;;;;;;18.80;99.90;;;;;;4960280;29;20369;-80
2021/03/30 08:45:58;;;;;;;;;;;18.80;99.90;;;;;;4959407;29;19984;-80
2021/03/30 08:48:40;;;;;;;;;;;18.80;99.90;;;;;;4958013;28;19911;-80
2021/03/30 08:51:08;;;;;;;;;;;18.80;99.90;;;;;;4955302;29;19917;-81
2021/03/30 08:53:35;;;;;;;;;;;18.80;99.90;;;;;;4956322;29;19923;-81
2021/03/30 08:56:08;;;;;;;;;;;18.80;99.90;;;;;;4956287;29;20277;-80
2021/03/30 08:58:37;;;;;;;;;;;18.80;99.90;;;;;;4956568;29;20236;-78
2021/03/30 09:01:06;;;;;;;;;;;18.70;99.90;;;;;;4956834;29;19915;-78
2021/03/30 09:03:33;;;;;;;;;;;18.70;99.90;;;;;;4954852;29;19922;-79
2021/03/30 09:06:00;;;;;;;;;;;18.70;99.90;;;;;;4956986;29;19965;-79
2021/03/30 09:08:41;;;;;;;;;;;18.70;99.90;;;;;;4955839;29;20262;-80
2021/03/30 09:11:23;;;;;;;;;;;18.70;99.90;;;;;;4937925;29;19919;-80
2021/03/30 09:13:59;;;;;;;;;;;18.70;99.90;;;;;;4952325;29;20381;-80
2021/03/30 09:16:26;;;;;;;;;;;18.60;99.90;;;;;;4956870;29;19915;-80
2021/03/30 09:19:11;;;;;;;;;;;18.60;99.90;;;;;;4956327;29;20289;-78
2021/03/30 09:21:38;;;;;;;;;;;18.60;99.90;;;;;;4954005;29;19918;-79
2021/03/30 09:24:08;;;;;;;;;;;18.60;99.90;;;;;;4955923;29;19914;-78
2021/03/30 09:26:39;;;;;;;;;;;18.60;99.90;;;;;;4956741;29;20037;-79
2021/03/30 09:29:07;;;;;;;;;;;18.60;99.90;;;;;;4935658;29;20373;-78
2021/03/30 09:31:35;;;;;;;;;;;18.60;99.90;;;;;;4953801;29;19915;-79
2021/03/30 09:34:05;;;;;;;;;;;18.60;99.90;;;;;;4956363;29;19934;-79
2021/03/30 09:36:42;;;;;;;;;;;18.60;99.90;;;;;;4952235;29;20377;-81
2021/03/30 09:39:09;;;;;;;;;;;18.60;99.90;;;;;;4934859;29;19911;-81
2021/03/30 09:41:39;;;;;;;;;;;18.60;99.90;;;;;;4950603;29;20388;-81
2021/03/30 09:44:09;;;;;;;;;;;18.60;99.90;;;;;;4953171;29;19914;-81
2021/03/30 09:46:36;;;;;;;;;;;18.60;99.90;;;;;;4935108;29;19914;-81
2021/03/30 09:49:07;;;;;;;;;;;18.60;99.90;;;;;;4936261;29;20501;-80
2021/03/30 09:51:36;;;;;;;;;;;18.60;99.90;;;;;;4950324;29;19992;-81
2021/03/30 09:54:17;;;;;;;;;;;18.60;99.90;;;;;;4938880;29;20475;-81
2021/03/30 09:56:45;;;;;;;;;;;18.70;99.90;;;;;;4926957;29;20026;-80
2021/03/30 09:59:27;;;;;;;;;;;18.70;99.90;;;;;;4955659;28;19923;-79
2021/03/30 10:01:54;;;;;;;;;;;18.70;99.90;;;;;;4938747;29;20017;-84
2021/03/30 10:04:27;;;;;;;;;;;18.70;99.90;;;;;;4956296;29;19914;-80
2021/03/30 10:06:54;;;;;;;;;;;18.70;99.90;;;;;;4936021;29;20431;-81
2021/03/30 10:09:21;;;;;;;;;;;18.70;99.90;;;;;;4955622;29;19961;-81
2021/03/30 10:11:50;;;;;;;;;;;18.70;99.90;;;;;;4955958;29;19921;-80
2021/03/30 10:14:17;;;;;;;;;;;18.70;99.90;;;;;;4955757;29;19922;-80
2021/03/30 10:16:45;;;;;;;;;;;18.70;99.90;;;;;;4932908;29;19919;-80
2021/03/30 10:19:13;;;;;;;;;;;18.70;99.90;;;;;;4951962;29;19933;-80
2021/03/30 10:21:40;;;;;;;;;;;18.70;99.90;;;;;;4950590;29;19915;-79
2021/03/30 10:24:15;;;;;;;;;;;18.60;99.90;;;;;;4927846;29;20017;-80
2021/03/30 10:26:43;;;;;;;;;;;18.60;99.90;;;;;;4950923;29;20259;-78
2021/03/30 10:29:21;;;;;;;;;;;18.50;99.90;;;;;;4952650;29;20345;-77
2021/03/30 10:31:59;;;;;;;;;;;18.50;99.90;;;;;;4941985;29;19990;-79
2021/03/30 10:34:26;;;;;;;;;;;18.40;99.90;;;;;;4963340;29;19922;-80
2021/03/30 10:36:53;;;;;;;;;;;18.40;99.90;;;;;;4956075;29;19919;-79
2021/03/30 10:39:32;;;;;;;;;;;18.40;99.90;;;;;;4935828;29;19922;-80
2021/03/30 10:42:02;;;;;;;;;;;18.30;99.90;;;;;;4952837;29;20415;-82
2021/03/30 10:44:34;;;;;;;;;;;18.30;99.90;;;;;;4952021;29;20328;-80
2021/03/30 10:47:24;;;;;;;;;;;18.40;99.90;;;;;;4950623;29;19973;-80
2021/03/30 10:49:53;;;;;;;;;;;18.40;99.90;;;;;;4951916;29;19914;-80
2021/03/30 10:52:28;;;;;;;;;;;18.40;99.90;;;;;;4950498;29;19932;-80
2021/03/30 10:55:00;;;;;;;;;;;18.50;99.90;;;;;;4952284;29;19918;-80
2021/03/30 10:57:32;;;;;;;;;;;18.50;99.90;;;;;;4952029;29;20000;-79
2021/03/30 10:59:58;;;;;;;;;;;18.50;99.90;;;;;;4950802;29;20376;-80
2021/03/30 11:02:25;;;;;;;;;;;18.60;99.90;;;;;;4951104;29;19956;-80
2021/03/30 11:04:52;;;;;;;;;;;18.60;99.90;;;;;;4952542;29;19930;-80
2021/03/30 11:07:18;;;;;;;;;;;18.60;99.90;;;;;;4933792;29;19914;-80
2021/03/30 11:09:45;;;;;;;;;;;18.60;99.90;;;;;;4951581;29;20416;-80
2021/03/30 11:12:12;;;;;;;;;;;18.70;99.90;;;;;;4951005;28;19910;-81
2021/03/30 11:14:39;;;;;;;;;;;18.70;99.90;;;;;;4952303;29;19914;-79
2021/03/30 11:17:06;;;;;;;;;;;18.60;99.90;;;;;;4934315;29;19966;-80
2021/03/30 11:19:33;;;;;;;;;;;18.40;99.90;;;;;;4934888;29;19921;-80
2021/03/30 11:22:00;;;;;;;;;;;18.30;99.90;;;;;;4952336;29;19933;-80
2021/03/30 11:24:31;;;;;;;;;;;18.20;99.90;;;;;;4935552;29;20319;-80
2021/03/30 11:26:58;;;;;;;;;;;18.20;99.90;;;;;;4952524;29;19922;-80
2021/03/30 11:34:57;;;;;;;;;;;18.10;99.90;;;;;;4952199;29;19925;-79
2021/03/30 11:39:54;;;;;;;;;;;18.10;99.90;;;;;;4952207;28;19922;-81
2021/03/30 11:42:22;;;;;;;;;;;18.10;99.90;;;;;;4952770;29;19918;-80
2021/03/30 11:44:49;;;;;;;;;;;18.20;99.90;;;;;;4952607;29;20009;-80
2021/03/30 11:47:16;;;;;;;;;;;18.30;99.90;;;;;;4961368;28;19985;-78
2021/03/30 11:49:45;;;;;;;;;;;18.20;99.90;;;;;;4951704;28;19914;-79
2021/03/30 11:52:12;;;;;;;;;;;18.20;99.90;;;;;;4953823;28;20387;-78
2021/03/30 11:54:39;;;;;;;;;;;18.40;99.90;;;;;;4959396;28;19929;-78
2021/03/30 11:57:06;;;;;;;;;;;18.40;99.90;;;;;;4958536;28;20349;-79
2021/03/30 11:59:32;;;;;;;;;;;18.50;99.90;;;;;;4952230;28;19953;-78
2021/03/30 12:01:59;;;;;;;;;;;18.60;99.90;;;;;;4952742;28;19914;-79
2021/03/30 12:04:26;;;;;;;;;;;18.50;99.90;;;;;;4952360;28;19914;-79
2021/03/30 12:06:54;;;;;;;;;;;18.50;99.90;;;;;;4951372;29;20031;-78
2021/03/30 12:09:21;;;;;;;;;;;18.50;99.90;;;;;;4951798;29;20057;-79
2021/03/30 12:11:52;;;;;;;;;;;18.40;99.90;;;;;;4949074;29;19914;-77
2021/03/30 12:14:19;;;;;;;;;;;18.50;99.90;;;;;;4934775;29;20277;-79
2021/03/30 12:16:49;;;;;;;;;;;18.50;99.90;;;;;;4951536;29;19914;-79
2021/03/30 12:19:16;;;;;;;;;;;18.50;99.90;;;;;;4952542;29;19918;-80
2021/03/30 12:21:45;;;;;;;;;;;18.40;99.90;;;;;;4952794;29;19910;-78
2021/03/30 12:24:11;;;;;;;;;;;18.40;99.90;;;;;;4932312;29;19915;-78
2021/03/30 12:26:38;;;;;;;;;;;18.30;99.90;;;;;;4936502;29;19937;-78
2021/03/30 12:29:05;;;;;;;;;;;18.30;99.90;;;;;;4950266;29;19922;-79
2021/03/30 12:31:34;;;;;;;;;;;18.20;99.90;;;;;;4933744;29;19915;-78
2021/03/30 12:34:01;;;;;;;;;;;18.20;99.90;;;;;;4952788;29;19926;-80
2021/03/30 12:36:28;;;;;;;;;;;18.20;99.90;;;;;;4947489;29;19934;-82
2021/03/30 12:38:55;;;;;;;;;;;18.20;99.90;;;;;;4919902;29;19962;-80
2021/03/30 12:41:22;;;;;;;;;;;18.10;99.90;;;;;;4949340;29;19922;-82
2021/03/30 12:43:49;;;;;;;;;;;18.00;99.90;;;;;;4956262;29;19919;-78
2021/03/30 12:46:15;;;;;;;;;;;18.00;99.90;;;;;;4946482;29;19922;-78
2021/03/30 12:48:42;;;;;;;;;;;17.80;99.90;;;;;;4936588;29;19915;-79
2021/03/30 12:51:09;;;;;;;;;;;17.80;99.90;;;;;;4936289;29;19922;-79
2021/03/30 12:53:36;;;;;;;;;;;17.70;99.90;;;;;;4919304;29;19918;-79
2021/03/30 12:56:03;;;;;;;;;;;17.70;99.90;;;;;;4954098;29;19973;-79
2021/03/30 12:58:30;;;;;;;;;;;17.60;99.90;;;;;;4955309;29;20573;-81
2021/03/30 13:00:56;;;;;;;;;;;17.60;99.90;;;;;;4932562;29;19915;-82
2021/03/30 13:03:23;;;;;;;;;;;17.60;99.90;;;;;;4952714;29;19921;-79
2021/03/30 13:05:50;;;;;;;;;;;17.50;99.90;;;;;;4934642;29;20013;-82
2021/03/30 13:08:20;;;;;;;;;;;17.60;99.90;;;;;;4949980;29;19937;-83
2021/03/30 13:10:48;;;;;;;;;;;17.50;99.90;;;;;;4951589;29;19915;-84
2021/03/30 13:13:20;;;;;;;;;;;17.40;99.90;;;;;;4936457;29;19927;-81
2021/03/30 13:15:49;;;;;;;;;;;17.20;99.90;;;;;;4937538;29;19915;-83
2021/03/30 13:18:29;;;;;;;;;;;17.00;99.90;;;;;;4935766;29;20333;-79
2021/03/30 13:20:56;;;;;;;;;;;16.70;99.90;;;;;;4943079;29;19914;-78
2021/03/30 13:23:23;;;;;;;;;;;16.70;99.90;;;;;;4955550;29;20321;-80
2021/03/30 13:25:50;;;;;;;;;;;16.60;99.90;;;;;;4954833;29;19911;-81
2021/03/30 13:28:17;;;;;;;;;;;16.60;99.90;;;;;;4955035;29;19914;-80
2021/03/30 13:30:45;;;;;;;;;;;16.60;99.90;;;;;;4934075;29;20372;-79
2021/03/30 13:33:11;;;;;;;;;;;16.60;99.90;;;;;;4955090;29;19930;-80
2021/03/30 13:35:38;;;;;;;;;;;16.50;99.90;;;;;;4952378;28;19918;-81
2021/03/30 13:38:05;;;;;;;;;;;16.40;99.90;;;;;;4952804;29;20377;-83
2021/03/30 13:40:34;;;;;;;;;;;16.40;99.90;;;;;;4943071;29;19918;-80
2021/03/30 13:43:02;;;;;;;;;;;16.30;99.90;;;;;;4954408;29;19922;-79
2021/03/30 13:45:32;;;;;;;;;;;16.30;99.90;;;;;;4939070;29;20009;-79
2021/03/30 13:47:59;;;;;;;;;;;16.30;99.90;;;;;;4935529;29;19962;-80
2021/03/30 13:50:34;;;;;;;;;;;16.30;99.90;;;;;;4935578;29;20010;-78
2021/03/30 13:53:01;;;;;;;;;;;16.20;99.90;;;;;;4952111;29;20362;-79
2021/03/30 13:55:27;;;;;;;;;;;16.10;99.90;;;;;;4954259;29;20016;-79
2021/03/30 13:57:54;;;;;;;;;;;16.10;99.90;;;;;;4954707;29;19910;-80
2021/03/30 14:00:21;;;;;;;;;;;16.00;99.90;;;;;;4954909;29;19918;-80
2021/03/30 14:02:48;;;;;;;;;;;16.00;99.90;;;;;;4934055;29;20333;-78
2021/03/30 14:05:15;;;;;;;;;;;15.90;99.90;;;;;;4929301;29;19919;-78
2021/03/30 14:07:43;;;;;;;;;;;15.90;99.90;;;;;;4935171;29;19914;-81
2021/03/30 14:10:10;;;;;;;;;;;15.90;99.90;;;;;;4954485;29;19917;-78
2021/03/30 14:12:53;;;;;;;;;;;15.90;99.90;;;;;;4941251;29;19954;-81
2021/03/30 14:15:37;;;;;;;;;;;15.90;99.90;;;;;;4948240;29;19919;-79
2021/03/30 14:20:52;;;;;;;;;;;15.80;99.90;;;;;;4950047;29;19915;-79
2021/03/30 14:23:25;;;;;;;;;;;15.80;99.90;;;;;;4954468;29;19914;-79
2021/03/30 14:25:53;;;;;;;;;;;15.70;99.90;;;;;;4935166;29;19915;-78
2021/03/30 14:28:21;;;;;;;;;;;15.80;99.90;;;;;;4951066;29;19915;-80
2021/03/30 14:30:48;;;;;;;;;;;15.80;99.90;;;;;;4954345;29;19922;-79
2021/03/30 14:33:15;;;;;;;;;;;15.80;99.90;;;;;;4952407;29;20016;-78
2021/03/30 14:35:45;;;;;;;;;;;15.80;99.90;;;;;;4950650;29;20340;-79
2021/03/30 14:38:11;;;;;;;;;;;15.80;99.90;;;;;;4935174;29;19911;-78
2021/03/30 14:40:50;;;;;;;;;;;15.80;99.90;;;;;;4935074;29;20054;-77
2021/03/30 14:43:21;;;;;;;;;;;15.80;99.90;;;;;;4936054;29;20361;-79
2021/03/30 14:54:05;;;;;;;;;;;15.80;99.90;;;;;;4904749;29;19929;-80